(°C)
(°C)
-1°
-1°
-1°
NE
NE
ENE
L
L
L
L
(km/h)
4-11
4-11
6-10
5-13
5-12
6-13
7-15
(mm)
0
0
0
0
0
0
0
(%)
0
0
0
0
0
0
0

Elevação do sol

/ -3.9°
sun-icon
UV 1
05:53
18:27
Lua cheia (187°)
18:57
05:45

METAR para 64.6°N 40.72°L (ULAA)

Hora Condições Temperatura/
Ponto de condensação
Vento Visibilidade Tempo Nuvens Pressão Mudança Bruto
MVFR 2°C / 0°C 50º 2kt >10km - Overcast 2100ft 1033 No Significant change ULAA 210200Z 05001MPS 9999 OVC021 02/00 Q1033 R08/CLRD70 NOSIG RMK QFE774/1032
MVFR 2°C / 0°C 70º 2kt >10km - Overcast 2100ft 1033 No Significant change ULAA 210130Z 07001MPS 9999 OVC021 02/00 Q1033 R08/CLRD70 NOSIG RMK QFE774/1032
MVFR 2°C / 0°C 70º 2kt >10km - Overcast 2100ft 1034 No Significant change ULAA 210100Z 07001MPS 9999 OVC021 02/M00 Q1034 R08/CLRD70 NOSIG RMK QFE774/1032
MVFR 3°C / 0°C variable 2kt >10km - Overcast 2000ft 1034 No Significant change ULAA 210030Z VRB01MPS 9999 OVC020 03/00 Q1034 R08/CLRD70 NOSIG RMK QFE774/1033
MVFR 3°C / 0°C variable 2kt >10km - Overcast 1900ft 1034 No Significant change ULAA 210000Z VRB01MPS 9999 OVC019 03/00 Q1034 R08/CLRD70 NOSIG RMK QFE774/1033
MVFR 3°C / 0°C 100º 4kt >10km - Overcast 1700ft 1034 No Significant change ULAA 202330Z 10002MPS 9999 OVC017 03/00 Q1034 R08/CLRD70 NOSIG RMK QFE775/1033
MVFR 3°C / 0°C variable 2kt >10km - Overcast 1700ft 1034 No Significant change ULAA 202300Z VRB01MPS 9999 OVC017 03/M00 Q1034 R08/CLRD70 NOSIG RMK QFE775/1033
MVFR 4°C / 0°C 130º variable 090º to 160º 4kt >10km - Overcast 1700ft 1034 No Significant change ULAA 202230Z 13002MPS 090V160 9999 OVC017 04/00 Q1034 R08/CLRD70 NOSIG RMK QFE775/1033
MVFR 4°C / 0°C 140º variable 090º to 190º 4kt >10km - Overcast 1800ft 1034 No Significant change ULAA 202200Z 14002MPS 090V190 9999 OVC018 04/00 Q1034 R08/CLRD70 NOSIG RMK QFE775/1033
MVFR 4°C / 0°C 140º variable 090º to 210º 4kt >10km - Overcast 1800ft 1034 No Significant change ULAA 202130Z 14002MPS 090V210 9999 OVC018 04/00 Q1034 R08/CLRD70 NOSIG RMK QFE775/1033
MVFR 4°C / 0°C 150º variable 100º to 200º 4kt >10km - Overcast 1700ft 1034 No Significant change ULAA 202100Z 15002MPS 100V200 9999 OVC017 04/00 Q1034 R08/CLRD70 NOSIG RMK QFE775/1033
MVFR 4°C / 0°C 130º variable 110º to 170º 4kt >10km - Overcast 1900ft 1034 No Significant change ULAA 202030Z 13002MPS 110V170 9999 OVC019 04/00 Q1034 R08/CLRD70 NOSIG RMK QFE775/1033
MVFR 4°C / 0°C 120º variable 080º to 180º 4kt >10km - Overcast 1900ft 1034 No Significant change ULAA 202000Z 12002MPS 080V180 9999 OVC019 04/00 Q1034 R08/CLRD70 NOSIG RMK QFE775/1033
MVFR 4°C / 1°C 140º variable 100º to 180º 4kt >10km - Overcast 2100ft 1034 No Significant change ULAA 201930Z 14002MPS 100V180 9999 OVC021 04/01 Q1034 R08/CLRD70 NOSIG RMK QFE775/1033
MVFR 4°C / 1°C 110º variable 060º to 150º 4kt >10km - Overcast 1900ft 1034 No Significant change ULAA 201900Z 11002MPS 060V150 9999 OVC019 04/01 Q1034 R08/CLRD70 NOSIG RMK QFE775/1033
MVFR 4°C / 1°C 120º variable 060º to 150º 4kt >10km - Overcast 1900ft 1034 No Significant change ULAA 201830Z 12002MPS 060V150 9999 OVC019 04/01 Q1034 R08/CLRD70 NOSIG RMK QFE775/1033
MVFR 5°C / 1°C 110º variable 070º to 140º 6kt >10km - Overcast 1900ft 1035 No Significant change ULAA 201800Z 11003MPS 070V140 9999 OVC019 05/01 Q1035 R08/CLRD70 NOSIG RMK QFE775/1033
MVFR 5°C / 1°C 100º variable 060º to 160º 6kt >10km - Overcast 2100ft 1035 No Significant change ULAA 201730Z 10003MPS 060V160 9999 OVC021 05/01 Q1035 R08/CLRD70 NOSIG RMK QFE775/1033
MVFR 5°C / 1°C 110º variable 080º to 140º 6kt >10km - Overcast 2100ft 1035 No Significant change ULAA 201700Z 11003MPS 080V140 9999 OVC021 05/01 Q1035 R08/CLRD70 NOSIG RMK QFE775/1033
MVFR 5°C / 1°C 120º variable 080º to 160º 6kt >10km - Overcast 2100ft 1035 No Significant change ULAA 201630Z 12003MPS 080V160 9999 OVC021 05/01 Q1035 R08/CLRD70 NOSIG RMK QFE775/1033
MVFR 6°C / 1°C 110º variable 080º to 140º 4kt >10km - Overcast 2200ft 1035 No Significant change ULAA 201600Z 11002MPS 080V140 9999 OVC022 06/01 Q1035 R08/CLRD70 NOSIG RMK QFE775/1033
MVFR 6°C / 1°C 90º variable 060º to 130º 6kt >10km - Overcast 2400ft 1035 No Significant change ULAA 201530Z 09003MPS 060V130 9999 OVC024 06/01 Q1035 R08/CLRD70 NOSIG RMK QFE775/1033
MVFR 6°C / 1°C 110º variable 070º to 160º 4kt >10km - Overcast 2500ft 1035 No Significant change ULAA 201500Z 11002MPS 070V160 9999 OVC025 06/01 Q1035 R08/CLRD70 NOSIG RMK QFE775/1033
MVFR 6°C / 1°C 80º 4kt >10km - Broken Clouds 2700ft 1035 No Significant change ULAA 201430Z 08002MPS 9999 BKN027 06/01 Q1035 R08/CLRD70 NOSIG RMK QFE775/1034

MVFR

2°C / 0°C

[Mais]
Vento 50º 2kt
Visibilidade >10km
Tempo -
Nuvens Overcast 2100ft
Pressão 1033
Mudança No Significant change
Bruto ULAA 210200Z 05001MPS 9999 OVC021 02/00 Q1033 R08/CLRD70 NOSIG RMK QFE774/1032

MVFR

2°C / 0°C

[Mais]
Vento 70º 2kt
Visibilidade >10km
Tempo -
Nuvens Overcast 2100ft
Pressão 1033
Mudança No Significant change
Bruto ULAA 210130Z 07001MPS 9999 OVC021 02/00 Q1033 R08/CLRD70 NOSIG RMK QFE774/1032

MVFR

2°C / 0°C

[Mais]
Vento 70º 2kt
Visibilidade >10km
Tempo -
Nuvens Overcast 2100ft
Pressão 1034
Mudança No Significant change
Bruto ULAA 210100Z 07001MPS 9999 OVC021 02/M00 Q1034 R08/CLRD70 NOSIG RMK QFE774/1032

MVFR

3°C / 0°C

[Mais]
Vento variable 2kt
Visibilidade >10km
Tempo -
Nuvens Overcast 2000ft
Pressão 1034
Mudança No Significant change
Bruto ULAA 210030Z VRB01MPS 9999 OVC020 03/00 Q1034 R08/CLRD70 NOSIG RMK QFE774/1033

MVFR

3°C / 0°C

[Mais]
Vento variable 2kt
Visibilidade >10km
Tempo -
Nuvens Overcast 1900ft
Pressão 1034
Mudança No Significant change
Bruto ULAA 210000Z VRB01MPS 9999 OVC019 03/00 Q1034 R08/CLRD70 NOSIG RMK QFE774/1033

MVFR

3°C / 0°C

[Mais]
Vento 100º 4kt
Visibilidade >10km
Tempo -
Nuvens Overcast 1700ft
Pressão 1034
Mudança No Significant change
Bruto ULAA 202330Z 10002MPS 9999 OVC017 03/00 Q1034 R08/CLRD70 NOSIG RMK QFE775/1033

MVFR

3°C / 0°C

[Mais]
Vento variable 2kt
Visibilidade >10km
Tempo -
Nuvens Overcast 1700ft
Pressão 1034
Mudança No Significant change
Bruto ULAA 202300Z VRB01MPS 9999 OVC017 03/M00 Q1034 R08/CLRD70 NOSIG RMK QFE775/1033

MVFR

4°C / 0°C

[Mais]
Vento 130º variable 090º to 160º 4kt
Visibilidade >10km
Tempo -
Nuvens Overcast 1700ft
Pressão 1034
Mudança No Significant change
Bruto ULAA 202230Z 13002MPS 090V160 9999 OVC017 04/00 Q1034 R08/CLRD70 NOSIG RMK QFE775/1033

MVFR

4°C / 0°C

[Mais]
Vento 140º variable 090º to 190º 4kt
Visibilidade >10km
Tempo -
Nuvens Overcast 1800ft
Pressão 1034
Mudança No Significant change
Bruto ULAA 202200Z 14002MPS 090V190 9999 OVC018 04/00 Q1034 R08/CLRD70 NOSIG RMK QFE775/1033

MVFR

4°C / 0°C

[Mais]
Vento 140º variable 090º to 210º 4kt
Visibilidade >10km
Tempo -
Nuvens Overcast 1800ft
Pressão 1034
Mudança No Significant change
Bruto ULAA 202130Z 14002MPS 090V210 9999 OVC018 04/00 Q1034 R08/CLRD70 NOSIG RMK QFE775/1033

MVFR

4°C / 0°C

[Mais]
Vento 150º variable 100º to 200º 4kt
Visibilidade >10km
Tempo -
Nuvens Overcast 1700ft
Pressão 1034
Mudança No Significant change
Bruto ULAA 202100Z 15002MPS 100V200 9999 OVC017 04/00 Q1034 R08/CLRD70 NOSIG RMK QFE775/1033

MVFR

4°C / 0°C

[Mais]
Vento 130º variable 110º to 170º 4kt
Visibilidade >10km
Tempo -
Nuvens Overcast 1900ft
Pressão 1034
Mudança No Significant change
Bruto ULAA 202030Z 13002MPS 110V170 9999 OVC019 04/00 Q1034 R08/CLRD70 NOSIG RMK QFE775/1033

MVFR

4°C / 0°C

[Mais]
Vento 120º variable 080º to 180º 4kt
Visibilidade >10km
Tempo -
Nuvens Overcast 1900ft
Pressão 1034
Mudança No Significant change
Bruto ULAA 202000Z 12002MPS 080V180 9999 OVC019 04/00 Q1034 R08/CLRD70 NOSIG RMK QFE775/1033

MVFR

4°C / 1°C

[Mais]
Vento 140º variable 100º to 180º 4kt
Visibilidade >10km
Tempo -
Nuvens Overcast 2100ft
Pressão 1034
Mudança No Significant change
Bruto ULAA 201930Z 14002MPS 100V180 9999 OVC021 04/01 Q1034 R08/CLRD70 NOSIG RMK QFE775/1033

MVFR

4°C / 1°C

[Mais]
Vento 110º variable 060º to 150º 4kt
Visibilidade >10km
Tempo -
Nuvens Overcast 1900ft
Pressão 1034
Mudança No Significant change
Bruto ULAA 201900Z 11002MPS 060V150 9999 OVC019 04/01 Q1034 R08/CLRD70 NOSIG RMK QFE775/1033

MVFR

4°C / 1°C

[Mais]
Vento 120º variable 060º to 150º 4kt
Visibilidade >10km
Tempo -
Nuvens Overcast 1900ft
Pressão 1034
Mudança No Significant change
Bruto ULAA 201830Z 12002MPS 060V150 9999 OVC019 04/01 Q1034 R08/CLRD70 NOSIG RMK QFE775/1033

MVFR

5°C / 1°C

[Mais]
Vento 110º variable 070º to 140º 6kt
Visibilidade >10km
Tempo -
Nuvens Overcast 1900ft
Pressão 1035
Mudança No Significant change
Bruto ULAA 201800Z 11003MPS 070V140 9999 OVC019 05/01 Q1035 R08/CLRD70 NOSIG RMK QFE775/1033

MVFR

5°C / 1°C

[Mais]
Vento 100º variable 060º to 160º 6kt
Visibilidade >10km
Tempo -
Nuvens Overcast 2100ft
Pressão 1035
Mudança No Significant change
Bruto ULAA 201730Z 10003MPS 060V160 9999 OVC021 05/01 Q1035 R08/CLRD70 NOSIG RMK QFE775/1033

MVFR

5°C / 1°C

[Mais]
Vento 110º variable 080º to 140º 6kt
Visibilidade >10km
Tempo -
Nuvens Overcast 2100ft
Pressão 1035
Mudança No Significant change
Bruto ULAA 201700Z 11003MPS 080V140 9999 OVC021 05/01 Q1035 R08/CLRD70 NOSIG RMK QFE775/1033

MVFR

5°C / 1°C

[Mais]
Vento 120º variable 080º to 160º 6kt
Visibilidade >10km
Tempo -
Nuvens Overcast 2100ft
Pressão 1035
Mudança No Significant change
Bruto ULAA 201630Z 12003MPS 080V160 9999 OVC021 05/01 Q1035 R08/CLRD70 NOSIG RMK QFE775/1033

MVFR

6°C / 1°C

[Mais]
Vento 110º variable 080º to 140º 4kt
Visibilidade >10km
Tempo -
Nuvens Overcast 2200ft
Pressão 1035
Mudança No Significant change
Bruto ULAA 201600Z 11002MPS 080V140 9999 OVC022 06/01 Q1035 R08/CLRD70 NOSIG RMK QFE775/1033

MVFR

6°C / 1°C

[Mais]
Vento 90º variable 060º to 130º 6kt
Visibilidade >10km
Tempo -
Nuvens Overcast 2400ft
Pressão 1035
Mudança No Significant change
Bruto ULAA 201530Z 09003MPS 060V130 9999 OVC024 06/01 Q1035 R08/CLRD70 NOSIG RMK QFE775/1033

MVFR

6°C / 1°C

[Mais]
Vento 110º variable 070º to 160º 4kt
Visibilidade >10km
Tempo -
Nuvens Overcast 2500ft
Pressão 1035
Mudança No Significant change
Bruto ULAA 201500Z 11002MPS 070V160 9999 OVC025 06/01 Q1035 R08/CLRD70 NOSIG RMK QFE775/1033

MVFR

6°C / 1°C

[Mais]
Vento 80º 4kt
Visibilidade >10km
Tempo -
Nuvens Broken Clouds 2700ft
Pressão 1035
Mudança No Significant change
Bruto ULAA 201430Z 08002MPS 9999 BKN027 06/01 Q1035 R08/CLRD70 NOSIG RMK QFE775/1034

TAF para 64.6°N 40.72°L (ULAA)

From till


From till Wind 110º 6kt. Visibility 6000m. Few Clouds 500ft. Scattered Clouds 1600ft.
Temporarly from till Wind variable 2kt. Visibility 305.775m. Fog . Scattered Clouds 200ft.
Temporarly from till Wind 130º 6kt. Gust 17kt. Visibility 6000m. Light Showers Rain . Broken Clouds 1700ft.
From till Wind 90º 6kt. Visibility 10km or more. Scattered Clouds 2000ft.

Bruto: TAF ULAA 202300Z 2100/2124 11003MPS 6000 FEW005 SCT016 TEMPO 2100/2105 VRB01MPS 0300 FG SCT002 FM210700 09003MPS 9999 SCT020 TEMPO 2107/2119 13003G09MPS 6000 -SHRA BKN017CB

Imagens atuais de satélite e precipitação para 64.6°N 40.72°L

O marcador de lugar é colocado em 64.6°N 40.72°L. [Mais]

A imagem de satélite em tempo real combina luz visível durante o dia com radiação infravermelha durante a noite. À noite, a imagem não é escura, pois a radiação infravermelha pode detectar diferenças de temperatura. Infelizmente, nuvens baixas e neblina são difíceis de distinguir das temperaturas do solo e, portanto, podem ser quase invisíveis durante a noite. As imagens de satélite Meteosat para a Europa são atualizadas em tempo real a cada 5 minutos. GOES-16/GOES-17 ( América do Norte e do Sul) e Himawari (Ásia) são atualizadas a cada 10 minutos.

Copyright 2021 EUMETSAT / meteoblue. / Copyright 2021 meteoblue

Radar e precipitação nowcast para 64.6°N 40.72°L

Chuvisco
Leve
Moderado
Forte
Muito forte
Granizo

O marcador do lugar é colocado em 64.6°N 40.72°L. Esta animação mostra o radar de precipitação para a última hora, assim como a 1h previsão. A queda de neve pode ser invisível para o radar. A intensidade da precipitação é codificada por cores, variando do azul claro ao laranja.